Time;durP1;ratioP1;P1;durP2;ratioP2;P2;SDS_P1;SDS_P2;PMS_P1;PMS_P2;Temp;Humidity;BMP_temperature;BMP_pressure;BME280_temperature;BME280_humidity;BME280_pressure;Samples;Min_cycle;Max_cycle;Signal;HPM_P1;HPM_P2
2023/10/12 00:25:09;;;;;;;13.70;5.37;;;;;;;16.21;66.58;99756.94;31217059;28;97395;-61
2023/10/12 00:40:31;;;;;;;10.43;4.30;;;;;;;16.40;66.17;99730.94;31212772;28;97076;-61
2023/10/12 00:55:37;;;;;;;8.10;4.47;;;;;;;16.56;65.54;99743.00;31209881;28;97215;-61
2023/10/12 01:10:41;;;;;;;11.80;4.80;;;;;;;16.61;64.66;99721.66;31208756;27;96773;-62
2023/10/12 01:25:44;;;;;;;6.93;3.77;;;;;;;16.60;64.54;99698.50;31207060;27;97397;-62
2023/10/12 01:55:54;;;;;;;5.67;3.23;;;;;;;16.49;64.12;99683.91;31203488;27;96798;-63
2023/10/12 02:11:04;;;;;;;8.47;4.30;;;;;;;16.39;63.92;99678.25;31205054;28;97809;-63
2023/10/12 02:41:26;;;;;;;7.73;3.57;;;;;;;16.00;64.73;99696.34;31225185;28;97240;-60
2023/10/12 02:56:26;;;;;;;9.87;4.07;;;;;;;15.96;64.52;99698.63;31222329;27;98507;-66
2023/10/12 03:11:31;;;;;;;9.25;4.82;;;;;;;15.81;64.20;99690.88;31220245;28;96770;-67
2023/10/12 03:26:33;;;;;;;9.83;3.73;;;;;;;15.49;64.66;99677.41;31218465;27;97345;-67
2023/10/12 03:57:09;;;;;;;9.23;3.13;;;;;;;15.17;65.10;99661.28;31214460;27;97514;-66
2023/10/12 04:42:26;;;;;;;10.57;4.70;;;;;;;15.45;65.03;99665.47;31207772;27;97805;-67
2023/10/12 04:57:33;;;;;;;11.77;4.13;;;;;;;15.65;64.69;99681.47;31218673;27;97257;-62
2023/10/12 05:12:33;;;;;;;7.57;3.47;;;;;;;15.68;64.14;99685.56;31208716;28;97101;-62
2023/10/12 05:27:39;;;;;;;11.88;4.03;;;;;;;15.86;64.33;99695.59;31208977;28;97317;-65
2023/10/12 05:42:39;;;;;;;9.90;3.67;;;;;;;16.04;63.77;99706.41;31204595;28;97143;-63
2023/10/12 05:57:41;;;;;;;15.40;5.18;;;;;;;16.16;63.47;99722.66;31219757;27;97186;-66
2023/10/12 06:12:42;;;;;;;7.97;3.80;;;;;;;16.52;62.92;99737.25;31227144;28;96752;-63
2023/10/12 06:27:42;;;;;;;15.30;4.22;;;;;;;17.11;62.30;99749.53;31225949;28;97853;-65
2023/10/12 06:42:45;;;;;;;9.32;3.60;;;;;;;17.75;60.89;99758.06;31222462;28;113723;-65
2023/10/12 06:57:52;;;;;;;14.20;4.07;;;;;;;18.22;59.76;99768.19;31221870;27;97429;-62
2023/10/12 07:12:53;;;;;;;8.93;3.70;;;;;;;18.60;58.74;99799.34;31219422;27;96672;-60
2023/10/12 07:27:58;;;;;;;9.43;3.85;;;;;;;18.84;57.76;99823.66;31219520;28;96757;-61
2023/10/12 07:43:04;;;;;;;12.33;3.80;;;;;;;19.27;57.01;99838.69;31216348;27;97243;-61
2023/10/12 07:58:04;;;;;;;8.87;3.70;;;;;;;19.61;55.66;99844.28;31214264;27;97039;-62
2023/10/12 08:13:25;;;;;;;13.27;4.20;;;;;;;19.90;54.97;99869.50;31211285;27;97118;-61
2023/10/12 08:28:35;;;;;;;12.10;4.73;;;;;;;19.66;54.93;99887.63;31212514;28;96970;-68
2023/10/12 08:43:53;;;;;;;14.67;4.57;;;;;;;19.33;55.17;99909.84;31210656;28;97413;-63
2023/10/12 08:58:57;;;;;;;15.43;3.83;;;;;;;19.28;55.61;99915.94;31211709;27;96682;-67
2023/10/12 09:13:58;;;;;;;8.33;3.67;;;;;;;19.76;55.53;99931.06;31210188;27;97086;-65
2023/10/12 09:44:07;;;;;;;10.47;3.90;;;;;;;20.00;55.06;99966.22;31203229;27;97028;-66
2023/10/12 09:59:13;;;;;;;11.37;3.67;;;;;;;20.00;55.25;99951.84;31202762;28;97759;-65
2023/10/12 10:14:20;;;;;;;8.73;4.30;;;;;;;19.78;56.02;99982.19;31203391;28;96762;-67
2023/10/12 10:29:21;;;;;;;11.27;4.10;;;;;;;19.06;57.66;99983.19;31203119;28;96832;-66
2023/10/12 10:44:22;;;;;;;10.30;4.38;;;;;;;19.05;59.29;99986.94;31215587;27;97100;-65
2023/10/12 10:59:23;;;;;;;11.10;5.03;;;;;;;18.65;60.86;99996.41;31221691;27;96833;-62
2023/10/12 11:14:24;;;;;;;9.30;4.22;;;;;;;18.29;62.33;99991.88;31219059;28;111089;-65
2023/10/12 11:29:25;;;;;;;11.27;3.73;;;;;;;17.93;63.79;99991.66;31218523;28;96605;-62
2023/10/12 11:44:36;;;;;;;8.40;4.30;;;;;;;17.68;65.19;99986.31;31217173;27;96758;-60
2023/10/12 11:59:37;;;;;;;18.43;7.13;;;;;;;17.58;66.31;100011.06;31215941;27;97203;-61
2023/10/12 12:14:38;;;;;;;11.50;4.88;;;;;;;17.45;66.99;100013.84;31213196;28;97403;-62
2023/10/12 12:29:38;;;;;;;8.60;4.80;;;;;;;17.39;68.03;100015.56;31212613;28;97210;-60
2023/10/12 12:44:42;;;;;;;8.63;5.00;;;;;;;17.51;68.87;100002.19;31210019;28;96847;-61
2023/10/12 12:59:42;;;;;;;12.50;5.90;;;;;;;17.56;69.38;100000.50;31207517;27;97258;-61
2023/10/12 13:14:42;;;;;;;6.88;3.92;;;;;;;17.37;69.70;99996.94;31208722;28;116241;-61
2023/10/12 13:29:48;;;;;;;7.82;3.67;;;;;;;17.24;70.21;100000.53;31208453;28;97754;-62
2023/10/12 13:44:50;;;;;;;9.03;4.53;;;;;;;17.15;70.75;99992.97;31207207;27;97326;-62
2023/10/12 13:59:50;;;;;;;5.93;3.90;;;;;;;17.02;71.19;100010.03;31205122;27;97262;-62
2023/10/12 14:14:50;;;;;;;8.93;3.78;;;;;;;16.82;71.76;100010.13;31213810;27;97566;-60
2023/10/12 14:29:52;;;;;;;5.93;2.92;;;;;;;16.52;72.28;100022.25;31226435;28;97319;-61
2023/10/12 14:44:53;;;;;;;7.50;2.93;;;;;;;16.28;72.71;100031.88;31212520;27;98355;-60
2023/10/12 14:59:53;;;;;;;12.15;3.45;;;;;;;16.17;73.14;100045.94;31182270;27;97423;-62
2023/10/12 15:14:54;;;;;;;8.18;4.90;;;;;;;16.02;73.43;100057.78;31214387;28;97062;-61
2023/10/12 15:29:55;;;;;;;7.80;3.90;;;;;;;15.92;74.13;100069.97;31175086;27;98815;-64
2023/10/12 15:44:55;;;;;;;7.53;3.00;;;;;;;15.80;74.29;100076.00;31194704;27;98230;-62
2023/10/12 15:59:55;;;;;;;6.63;2.95;;;;;;;15.69;74.10;100087.31;31268479;27;118865;-62
2023/10/12 16:14:56;;;;;;;4.53;2.55;;;;;;;15.60;74.34;100067.09;31338342;27;97521;-62
2023/10/12 16:29:56;;;;;;;6.38;2.80;;;;;;;15.64;74.83;100089.81;31337008;27;110424;-63
2023/10/12 16:45:01;;;;;;;6.57;4.25;;;;;;;15.51;74.85;100117.44;31334158;27;96810;-64
2023/10/12 17:00:03;;;;;;;12.60;9.07;;;;;;;15.49;75.16;100106.91;31261772;27;97665;-65
2023/10/12 17:15:04;;;;;;;10.27;6.07;;;;;;;15.37;75.63;100113.91;31209077;28;96821;-67
2023/10/12 17:30:09;;;;;;;11.73;6.93;;;;;;;15.22;75.84;100130.19;31207936;28;98268;-65
2023/10/12 17:45:14;;;;;;;12.50;8.67;;;;;;;15.07;76.88;100127.66;31205610;28;97221;-63
2023/10/12 18:00:18;;;;;;;13.20;8.97;;;;;;;15.03;77.33;100115.69;31204625;27;96934;-64
2023/10/12 18:15:19;;;;;;;16.77;9.03;;;;;;;14.99;77.88;100127.84;31203143;27;97527;-64
2023/10/12 18:30:20;;;;;;;12.07;7.33;;;;;;;14.91;77.90;100133.38;31202737;27;96710;-64
2023/10/12 18:45:21;;;;;;;12.63;5.95;;;;;;;14.80;78.38;100143.66;31203586;27;97347;-64
2023/10/12 19:00:22;;;;;;;10.03;6.17;;;;;;;14.78;78.52;100140.34;31208986;27;97389;-66
2023/10/12 19:15:22;;;;;;;13.13;7.50;;;;;;;14.67;78.94;100146.28;31222736;28;97271;-63
2023/10/12 19:30:22;;;;;;;11.85;6.65;;;;;;;14.52;79.30;100147.19;31221010;28;97306;-63
2023/10/12 19:45:24;;;;;;;11.00;6.55;;;;;;;14.59;79.42;100143.72;31217640;28;97345;-62
2023/10/12 20:00:29;;;;;;;17.47;7.67;;;;;;;14.69;79.30;100142.38;31217407;27;97223;-65
2023/10/12 20:15:30;;;;;;;14.23;7.23;;;;;;;14.75;78.89;100140.75;31214453;27;97155;-65
2023/10/12 20:30:31;;;;;;;15.90;6.10;;;;;;;14.84;78.74;100139.56;31215451;28;97053;-65
2023/10/12 20:45:32;;;;;;;12.88;5.20;;;;;;;14.74;78.54;100133.72;31213385;27;112756;-63
2023/10/12 21:00:34;;;;;;;14.60;6.80;;;;;;;14.62;77.85;100136.09;31214009;27;97280;-63
2023/10/12 21:15:38;;;;;;;11.73;6.57;;;;;;;14.50;77.83;100138.53;31210066;28;96723;-64
2023/10/12 21:30:39;;;;;;;14.57;7.50;;;;;;;14.42;77.95;100132.47;31210610;27;98775;-63
2023/10/12 21:45:47;;;;;;;14.10;7.27;;;;;;;14.35;78.54;100130.59;31209486;28;96832;-62
2023/10/12 22:00:56;;;;;;;12.30;7.73;;;;;;;14.28;78.75;100120.84;31207963;28;97299;-65
2023/10/12 22:16:03;;;;;;;13.80;7.10;;;;;;;14.31;78.82;100123.97;31208089;27;96770;-65
2023/10/12 22:31:03;;;;;;;11.77;6.50;;;;;;;14.17;78.88;100123.03;31208709;27;97128;-65
2023/10/12 22:46:04;;;;;;;13.95;7.10;;;;;;;14.15;78.85;100114.38;31227070;27;97027;-65
2023/10/12 23:01:05;;;;;;;16.95;8.70;;;;;;;14.12;79.23;100114.78;31226476;27;97430;-64
2023/10/12 23:16:06;;;;;;;13.53;7.83;;;;;;;14.05;79.04;100116.56;31224931;28;96963;-64
2023/10/12 23:31:12;;;;;;;15.48;8.45;;;;;;;14.03;79.44;100105.25;31223569;28;97203;-65
2023/10/12 23:46:13;;;;;;;15.20;8.07;;;;;;;14.03;79.79;100106.06;31221071;27;97100;-64
